Weather at Hidden Hills Airport

Public forecast

Using degrees Fahrenheit for public forecast. Weather courtesy of forecast.io.

Closest aviation weather report (METAR) to Hidden Hills Airport

Closest report is North Las Vegas Metropolitan International Airport, 34.7 nm (64.2 km) ENE. Retrieved 2021/06/22 16:53 UTC (7 minutes ago):

KVGT 221653Z 21015KT 10SM CLR 38/M02 A2983 RMK AO2 SLP082 T03781017

Closest aviation forecast (TAF) to Hidden Hills Airport

Closest forecast is North Las Vegas Metropolitan International Airport, 34.7 nm (64.2 km) ENE. Retrieved 2021/06/22 12:36 UTC (4 hours ago):

TAF KVGT 221133Z 2212/2312 21011KT P6SM SCT150 BKN250 FM221700 24016G25KT P6SM SCT150 BKN250 FM230400 21010KT P6SM BKN120 BKN180